createdAt,value
2022-09-17T00:00:46.872Z,2.10
2022-09-17T00:03:13.405Z,2.55
2022-09-17T00:05:39.954Z,2.13
2022-09-17T00:08:07.295Z,2.28
2022-09-17T00:10:37.937Z,2.05
2022-09-17T00:13:04.695Z,2.40
2022-09-17T00:15:31.131Z,2.17
2022-09-17T00:17:58.926Z,2.20
2022-09-17T00:20:26.792Z,1.88
2022-09-17T00:22:53.578Z,2.45
2022-09-17T00:25:20.281Z,2.22
2022-09-17T00:27:46.961Z,2.92
2022-09-17T00:30:13.929Z,2.72
2022-09-17T00:32:40.358Z,2.80
2022-09-17T00:35:07.090Z,2.47
2022-09-17T00:37:33.474Z,2.60
2022-09-17T00:39:59.944Z,2.53
2022-09-17T00:42:26.448Z,2.83
2022-09-17T00:44:54.601Z,2.88
2022-09-17T00:47:23.345Z,2.97
2022-09-17T00:49:51.368Z,3.85
2022-09-17T00:52:20.533Z,3.25
2022-09-17T00:54:51.985Z,3.28
2022-09-17T00:57:18.822Z,3.28
2022-09-17T00:59:45.405Z,3.13
2022-09-17T01:02:12.107Z,3.45
2022-09-17T01:04:38.568Z,3.15
2022-09-17T01:07:07.967Z,4.25
2022-09-17T01:09:40.911Z,3.38
2022-09-17T01:12:26.552Z,3.50
2022-09-17T01:14:53.016Z,4.18
2022-09-17T01:17:26.418Z,3.90
2022-09-17T01:20:01.984Z,4.22
2022-09-17T01:22:43.234Z,3.72
2022-09-17T01:25:09.640Z,4.20
2022-09-17T01:27:43.705Z,3.70
2022-09-17T01:30:16.040Z,3.67
2022-09-17T01:32:51.131Z,4.38
2022-09-17T01:35:20.679Z,3.78
2022-09-17T01:37:53.181Z,3.72
2022-09-17T01:40:19.594Z,3.90
2022-09-17T01:43:13.297Z,3.58
2022-09-17T01:45:46.902Z,3.70
2022-09-17T01:48:33.911Z,4.10
2022-09-17T01:51:06.467Z,3.72
2022-09-17T01:53:59.650Z,4.15
2022-09-17T01:56:28.377Z,4.10
2022-09-17T01:59:01.877Z,3.28
2022-09-17T02:01:31.047Z,3.42
2022-09-17T02:04:03.194Z,3.70
2022-09-17T02:06:31.119Z,3.42
2022-09-17T02:09:01.715Z,3.60
2022-09-17T02:11:28.512Z,3.40
2022-09-17T02:13:54.912Z,3.67
2022-09-17T02:16:28.654Z,3.60
2022-09-17T02:19:01.114Z,4.47
2022-09-17T02:21:46.685Z,3.30
2022-09-17T02:24:31.310Z,3.08
2022-09-17T02:26:57.676Z,3.45
2022-09-17T02:29:32.174Z,3.30
2022-09-17T02:31:58.665Z,3.28
2022-09-17T02:34:26.742Z,2.95
2022-09-17T02:36:53.725Z,3.08
2022-09-17T02:39:20.459Z,3.13
2022-09-17T02:41:52.471Z,3.20
2022-09-17T02:44:26.362Z,2.95
2022-09-17T02:46:52.795Z,3.17
2022-09-17T02:49:25.485Z,3.47
2022-09-17T02:52:01.352Z,3.38
2022-09-17T02:55:03.283Z,3.10
2022-09-17T02:57:43.239Z,3.45
2022-09-17T03:00:09.852Z,3.90
2022-09-17T03:02:45.719Z,3.25
2022-09-17T03:05:13.406Z,3.13
2022-09-17T03:07:40.347Z,2.90
2022-09-17T03:10:07.091Z,2.85
2022-09-17T03:12:33.951Z,2.70
2022-09-17T03:15:00.783Z,2.90
2022-09-17T03:17:27.216Z,3.10
2022-09-17T03:19:53.602Z,3.38
2022-09-17T03:22:20.060Z,3.00
2022-09-17T03:24:46.605Z,3.00
2022-09-17T03:27:13.042Z,3.25
2022-09-17T03:29:39.454Z,3.35
2022-09-17T03:32:06.031Z,2.50
2022-09-17T03:34:32.480Z,3.20
2022-09-17T03:36:58.962Z,3.03
2022-09-17T03:39:25.363Z,3.58
2022-09-17T03:41:51.783Z,2.97
2022-09-17T03:44:19.397Z,3.03
2022-09-17T03:46:46.129Z,3.00
2022-09-17T03:49:12.620Z,2.90
2022-09-17T03:51:39.004Z,3.28
2022-09-17T03:54:05.443Z,3.03
2022-09-17T03:56:31.856Z,3.08
2022-09-17T03:59:01.183Z,3.05
2022-09-17T04:01:28.151Z,2.78
2022-09-17T04:03:54.778Z,2.40
2022-09-17T04:06:21.472Z,2.95
2022-09-17T04:08:47.889Z,3.03
2022-09-17T04:11:14.401Z,2.95
2022-09-17T04:13:40.784Z,2.78
2022-09-17T04:16:07.472Z,3.20
2022-09-17T04:18:34.277Z,2.65
2022-09-17T04:21:00.752Z,2.75
2022-09-17T04:23:27.138Z,2.90
2022-09-17T04:25:53.528Z,3.50
2022-09-17T04:28:19.958Z,3.35
2022-09-17T04:30:47.837Z,3.00
2022-09-17T04:33:14.248Z,3.20
2022-09-17T04:35:40.660Z,2.90
2022-09-17T04:38:07.104Z,3.05
2022-09-17T04:40:33.541Z,3.15
2022-09-17T04:43:02.889Z,3.08
2022-09-17T04:45:30.521Z,3.63
2022-09-17T04:47:57.452Z,2.67
2022-09-17T04:50:24.136Z,2.70
2022-09-17T04:52:50.524Z,3.35
2022-09-17T04:55:19.938Z,3.17
2022-09-17T04:57:51.887Z,2.45
2022-09-17T05:07:17.459Z,3.08
2022-09-17T05:10:09.818Z,3.20
2022-09-17T05:12:36.855Z,2.50
2022-09-17T05:16:20.947Z,2.60
2022-09-17T05:22:18.366Z,3.30
2022-09-17T05:24:50.042Z,2.88
2022-09-17T05:25:23.582Z,3.03
2022-09-17T05:27:16.726Z,2.97
2022-09-17T05:29:43.310Z,2.75
2022-09-17T05:32:10.130Z,2.38
2022-09-17T05:34:37.601Z,2.78
2022-09-17T05:37:04.518Z,2.47
2022-09-17T05:39:30.945Z,2.70
2022-09-17T05:41:57.334Z,2.78
2022-09-17T05:44:25.847Z,3.70
2022-09-17T05:46:53.305Z,2.22
2022-09-17T05:49:19.753Z,3.45
2022-09-17T05:51:46.187Z,2.55
2022-09-17T05:54:12.615Z,2.50
2022-09-17T05:56:39.051Z,2.50
2022-09-17T05:59:05.671Z,2.95
2022-09-17T06:01:32.643Z,2.63
2022-09-17T06:03:59.315Z,2.60
2022-09-17T06:06:29.897Z,2.95
2022-09-17T06:09:00.171Z,2.53
2022-09-17T06:11:26.573Z,3.22
2022-09-17T06:13:53.637Z,2.33
2022-09-17T06:16:20.857Z,1.83
2022-09-17T06:18:47.513Z,2.72
2022-09-17T06:21:14.436Z,2.97
2022-09-17T06:23:43.382Z,2.35
2022-09-17T06:26:10.027Z,3.20
2022-09-17T06:28:41.244Z,2.75
2022-09-17T06:31:09.134Z,3.00
2022-09-17T06:33:36.432Z,2.75
2022-09-17T06:36:05.377Z,2.83
2022-09-17T06:38:35.225Z,2.70
2022-09-17T06:41:01.896Z,3.22
2022-09-17T06:43:28.554Z,2.70
2022-09-17T06:45:55.961Z,3.20
2022-09-17T06:48:23.193Z,3.55
2022-09-17T06:50:50.309Z,2.85
2022-09-17T06:53:17.520Z,3.67
2022-09-17T06:55:44.014Z,3.10
2022-09-17T06:58:10.638Z,2.80
2022-09-17T07:00:37.232Z,3.30
2022-09-17T07:03:03.786Z,3.05
2022-09-17T07:05:32.020Z,2.90
2022-09-17T07:08:00.496Z,2.95
2022-09-17T07:10:26.913Z,2.72
2022-09-17T07:12:54.614Z,2.85
2022-09-17T07:15:21.969Z,2.55
2022-09-17T07:17:48.429Z,2.60
2022-09-17T07:20:15.447Z,2.78
2022-09-17T07:22:44.195Z,2.90
2022-09-17T07:25:10.811Z,2.72
2022-09-17T07:27:37.384Z,2.75
2022-09-17T07:30:04.736Z,2.35
2022-09-17T07:32:31.645Z,2.65
2022-09-17T07:34:58.046Z,2.38
2022-09-17T07:37:24.542Z,2.60
2022-09-17T07:39:51.138Z,2.05
2022-09-17T07:42:17.637Z,2.42
2022-09-17T07:44:44.194Z,2.33
2022-09-17T07:47:10.683Z,2.40
2022-09-17T07:49:37.093Z,2.10
2022-09-17T07:52:06.483Z,2.40
2022-09-17T07:54:37.457Z,2.55
2022-09-17T07:57:05.265Z,2.20
2022-09-17T07:59:31.936Z,1.92
2022-09-17T08:01:58.632Z,1.80
2022-09-17T08:04:25.265Z,2.20
2022-09-17T08:06:53.986Z,2.38
2022-09-17T08:09:22.558Z,1.70
2022-09-17T08:11:55.985Z,2.33
2022-09-17T08:14:29.189Z,2.10
2022-09-17T08:16:59.549Z,1.80
2022-09-17T08:19:31.123Z,2.17
2022-09-17T08:21:57.554Z,2.05
2022-09-17T08:24:24.242Z,2.30
2022-09-17T08:26:50.698Z,2.00
2022-09-17T08:29:17.430Z,1.77
2022-09-17T08:31:44.038Z,1.60
2022-09-17T08:34:11.538Z,1.70
2022-09-17T08:36:42.396Z,1.70
2022-09-17T08:39:11.789Z,1.60
2022-09-17T08:41:39.846Z,1.65
2022-09-17T08:44:19.103Z,1.92
2022-09-17T08:46:51.017Z,1.83
2022-09-17T08:49:33.754Z,1.42
2022-09-17T08:52:11.215Z,1.65
2022-09-17T08:55:02.483Z,2.00
2022-09-17T08:57:52.385Z,1.70
2022-09-17T09:00:20.531Z,2.65
2022-09-17T09:03:08.093Z,2.20
2022-09-17T09:05:43.998Z,2.08
2022-09-17T09:08:14.551Z,1.55
2022-09-17T09:10:45.058Z,2.13
2022-09-17T09:13:13.239Z,1.77
2022-09-17T09:15:42.767Z,2.08
2022-09-17T09:18:19.838Z,1.65
2022-09-17T09:20:51.770Z,2.00
2022-09-17T09:23:20.295Z,1.67
2022-09-17T09:26:09.300Z,2.30
2022-09-17T09:28:54.745Z,2.28
2022-09-17T09:31:27.439Z,1.77
2022-09-17T09:33:55.829Z,1.50
2022-09-17T09:36:22.314Z,2.30
2022-09-17T09:38:57.853Z,1.90
2022-09-17T09:41:31.448Z,1.42
2022-09-17T09:44:05.300Z,1.85
2022-09-17T09:46:32.343Z,1.92
2022-09-17T09:49:04.863Z,1.83
2022-09-17T09:51:50.951Z,1.63
2022-09-17T09:54:42.853Z,1.52
2022-09-17T09:57:12.659Z,1.25
2022-09-17T09:59:41.271Z,1.48
2022-09-17T10:02:07.990Z,1.73
2022-09-17T10:04:36.584Z,1.40
2022-09-17T10:07:07.351Z,1.40
2022-09-17T10:09:35.335Z,1.17
2022-09-17T10:12:03.658Z,1.25
2022-09-17T10:14:33.056Z,1.23
2022-09-17T10:17:21.880Z,1.25
2022-09-17T10:20:06.112Z,1.30
2022-09-17T10:22:34.374Z,1.02
2022-09-17T10:25:01.707Z,1.50
2022-09-17T10:27:28.415Z,1.23
2022-09-17T10:29:57.937Z,1.20
2022-09-17T10:32:24.364Z,1.10
2022-09-17T10:34:58.254Z,1.15
2022-09-17T10:37:43.487Z,1.17
2022-09-17T10:40:20.594Z,1.30
2022-09-17T10:42:47.879Z,1.25
2022-09-17T10:45:24.847Z,1.70
2022-09-17T10:47:51.758Z,1.27
2022-09-17T10:50:19.803Z,1.13
2022-09-17T10:52:48.791Z,1.10
2022-09-17T10:55:21.062Z,1.25
2022-09-17T10:58:09.409Z,1.10
2022-09-17T11:00:42.267Z,1.30
2022-09-17T11:03:08.640Z,1.00
2022-09-17T11:05:41.509Z,1.35
2022-09-17T11:08:14.318Z,1.30
2022-09-17T11:11:02.103Z,1.60
2022-09-17T11:13:42.748Z,0.95
2022-09-17T11:16:22.847Z,1.00
2022-09-17T11:18:55.333Z,0.93
2022-09-17T11:21:29.866Z,1.02
2022-09-17T11:24:02.433Z,1.27
2022-09-17T11:26:28.868Z,0.90
2022-09-17T11:29:14.365Z,1.27
2022-09-17T11:31:55.376Z,1.65
2022-09-17T11:34:35.213Z,1.23
2022-09-17T11:37:01.621Z,0.68
2022-09-17T11:39:27.994Z,0.70
2022-09-17T11:41:55.802Z,0.50
2022-09-17T11:44:22.175Z,0.50
2022-09-17T11:46:52.895Z,0.50
2022-09-17T11:49:24.140Z,0.47
2022-09-17T11:51:55.229Z,0.40
2022-09-17T11:54:41.940Z,0.70
2022-09-17T11:57:13.710Z,0.93
2022-09-17T11:59:46.576Z,0.63
2022-09-17T12:02:22.141Z,0.75
2022-09-17T12:05:07.184Z,0.75
2022-09-17T12:07:33.560Z,0.75
2022-09-17T12:10:12.268Z,1.05
2022-09-17T12:12:50.620Z,0.95
2022-09-17T12:15:22.564Z,0.90
2022-09-17T12:18:20.262Z,0.80
2022-09-17T12:20:45.368Z,0.93
2022-09-17T12:23:14.863Z,0.90
2022-09-17T12:26:00.995Z,1.27
2022-09-17T12:28:35.957Z,0.90
2022-09-17T12:31:07.230Z,0.82
2022-09-17T12:33:46.272Z,0.90
2022-09-17T12:36:13.217Z,0.90
2022-09-17T12:38:43.303Z,1.25
2022-09-17T12:41:28.730Z,0.98
2022-09-17T12:44:04.306Z,0.75
2022-09-17T12:46:37.801Z,1.30
2022-09-17T12:49:24.894Z,0.88
2022-09-17T12:52:07.398Z,0.70
2022-09-17T12:54:44.465Z,0.70
2022-09-17T12:57:30.452Z,0.70
2022-09-17T13:00:03.959Z,0.90
2022-09-17T13:02:46.558Z,0.82
2022-09-17T13:05:12.971Z,1.10
2022-09-17T13:07:43.052Z,1.30
2022-09-17T13:10:48.243Z,1.20
2022-09-17T13:13:28.351Z,1.00
2022-09-17T13:16:13.299Z,1.00
2022-09-17T13:18:59.418Z,1.40
2022-09-17T13:21:40.243Z,1.85
2022-09-17T13:24:27.067Z,1.55
2022-09-17T13:26:54.386Z,1.85
2022-09-17T13:29:39.722Z,1.00
2022-09-17T13:32:06.158Z,0.90
2022-09-17T13:34:32.689Z,1.02
2022-09-17T13:37:06.817Z,0.98
2022-09-17T13:39:44.360Z,1.35
2022-09-17T13:42:14.569Z,1.38
2022-09-17T13:44:45.979Z,1.30
2022-09-17T13:47:19.529Z,1.50
2022-09-17T13:49:49.641Z,1.50
2022-09-17T13:52:29.653Z,0.70
2022-09-17T13:54:56.924Z,1.17
2022-09-17T13:57:23.711Z,1.05
2022-09-17T13:59:55.380Z,1.17
2022-09-17T14:02:30.071Z,1.13
2022-09-17T14:05:17.886Z,1.02
2022-09-17T14:07:49.196Z,1.17
2022-09-17T14:10:15.569Z,1.30
2022-09-17T14:12:44.456Z,0.93
2022-09-17T14:15:29.816Z,1.00
2022-09-17T14:17:56.520Z,0.80
2022-09-17T14:20:23.994Z,1.45
2022-09-17T14:23:00.594Z,1.25
2022-09-17T14:25:42.285Z,1.13
2022-09-17T14:28:28.914Z,1.25
2022-09-17T14:30:55.394Z,1.52
2022-09-17T14:33:26.847Z,1.10
2022-09-17T14:35:57.639Z,1.70
2022-09-17T14:38:27.261Z,1.40
2022-09-17T14:40:59.047Z,1.40
2022-09-17T14:43:31.490Z,1.45
2022-09-17T14:45:58.271Z,1.75
2022-09-17T14:48:29.101Z,1.75
2022-09-17T14:51:11.425Z,1.67
2022-09-17T14:53:37.826Z,1.75
2022-09-17T14:56:05.067Z,1.20
2022-09-17T14:58:40.319Z,1.52
2022-09-17T15:01:19.190Z,1.42
2022-09-17T15:03:45.636Z,1.42
2022-09-17T15:06:21.937Z,0.85
2022-09-17T15:08:48.443Z,1.13
2022-09-17T15:11:15.164Z,1.40
2022-09-17T15:13:44.132Z,1.15
2022-09-17T15:16:16.732Z,1.52
2022-09-17T15:18:44.249Z,1.23
2022-09-17T15:21:19.070Z,1.60
2022-09-17T15:23:49.273Z,1.85
2022-09-17T15:26:17.809Z,1.42
2022-09-17T15:28:47.340Z,1.50
2022-09-17T15:31:17.041Z,1.30
2022-09-17T15:33:44.260Z,1.23
2022-09-17T15:36:22.196Z,1.70
2022-09-17T15:38:48.999Z,1.50
2022-09-17T15:41:20.807Z,1.33
2022-09-17T15:43:47.576Z,1.77
2022-09-17T15:46:20.135Z,1.42
2022-09-17T15:48:46.622Z,1.45
2022-09-17T15:51:22.306Z,1.55
2022-09-17T15:53:58.319Z,1.95
2022-09-17T15:56:26.449Z,1.67
2022-09-17T15:59:19.113Z,1.80
2022-09-17T16:01:47.918Z,1.42
2022-09-17T16:04:22.269Z,1.45
2022-09-17T16:06:59.383Z,1.30
2022-09-17T16:09:40.216Z,1.70
2022-09-17T16:12:07.303Z,1.67
2022-09-17T16:14:33.686Z,1.95
2022-09-17T16:17:08.432Z,1.70
2022-09-17T16:19:34.861Z,2.15
2022-09-17T16:22:01.266Z,1.67
2022-09-17T16:24:27.637Z,1.67
2022-09-17T16:26:54.121Z,1.63
2022-09-17T16:29:22.024Z,1.77
2022-09-17T16:31:48.884Z,1.80
2022-09-17T16:34:16.529Z,1.70
2022-09-17T16:36:50.883Z,1.75
2022-09-17T16:39:18.520Z,1.85
2022-09-17T16:41:44.936Z,1.38
2022-09-17T16:44:12.845Z,1.35
2022-09-17T16:46:39.350Z,1.70
2022-09-17T16:49:07.162Z,1.58
2022-09-17T16:51:34.852Z,1.25
2022-09-17T16:54:01.579Z,2.05
2022-09-17T16:56:28.008Z,1.77
2022-09-17T16:58:56.683Z,1.30
2022-09-17T17:01:23.187Z,1.45
2022-09-17T17:03:53.374Z,1.30
2022-09-17T17:06:20.631Z,1.67
2022-09-17T17:08:47.277Z,1.90
2022-09-17T17:11:13.965Z,1.63
2022-09-17T17:13:43.884Z,1.42
2022-09-17T17:16:11.277Z,2.08
2022-09-17T17:18:37.958Z,1.63
2022-09-17T17:21:08.239Z,1.98
2022-09-17T17:23:35.099Z,1.40
2022-09-17T17:26:01.988Z,1.40
2022-09-17T17:28:31.028Z,1.50
2022-09-17T17:30:57.497Z,1.83
2022-09-17T17:33:23.973Z,2.13
2022-09-17T17:35:50.419Z,2.00
2022-09-17T17:38:17.386Z,1.50
2022-09-17T17:40:45.210Z,2.13
2022-09-17T17:43:12.159Z,2.17
2022-09-17T17:45:41.750Z,2.03
2022-09-17T17:48:08.181Z,1.67
2022-09-17T17:50:34.582Z,1.50
2022-09-17T17:53:00.948Z,1.92
2022-09-17T17:55:27.344Z,1.58
2022-09-17T17:58:01.119Z,1.50
2022-09-17T18:00:28.410Z,1.90
2022-09-17T18:02:56.205Z,1.80
2022-09-17T18:05:26.622Z,1.80
2022-09-17T18:07:53.100Z,2.15
2022-09-17T18:10:20.809Z,1.63
2022-09-17T18:12:50.557Z,2.13
2022-09-17T18:15:17.391Z,2.20
2022-09-17T18:17:47.944Z,1.67
2022-09-17T18:20:16.007Z,2.25
2022-09-17T18:22:42.722Z,1.83
2022-09-17T18:25:09.915Z,2.25
2022-09-17T18:27:36.705Z,2.20
2022-09-17T18:30:03.462Z,2.35
2022-09-17T18:32:30.951Z,2.00
2022-09-17T18:34:57.622Z,2.35
2022-09-17T18:37:25.524Z,1.80
2022-09-17T18:39:58.494Z,2.28
2022-09-17T18:42:29.821Z,2.10
2022-09-17T18:44:56.447Z,1.80
2022-09-17T18:47:23.135Z,2.38
2022-09-17T18:49:50.686Z,2.20
2022-09-17T18:52:17.152Z,2.50
2022-09-17T18:54:46.047Z,2.60
2022-09-17T18:57:20.562Z,2.33
2022-09-17T18:59:47.198Z,2.38
2022-09-17T19:02:13.885Z,2.50
2022-09-17T19:04:41.729Z,2.42
2022-09-17T19:07:08.294Z,3.20
2022-09-17T19:09:34.761Z,1.95
2022-09-17T19:12:01.368Z,2.60
2022-09-17T19:14:27.739Z,2.35
2022-09-17T19:16:55.224Z,2.85
2022-09-17T19:19:21.625Z,2.42
2022-09-17T19:21:51.021Z,2.47
2022-09-17T19:24:17.499Z,2.72
2022-09-17T19:26:47.602Z,3.10
2022-09-17T19:29:16.602Z,2.35
2022-09-17T19:31:43.062Z,3.08
2022-09-17T19:34:09.513Z,2.58
2022-09-17T19:36:35.950Z,2.92
2022-09-17T19:39:02.366Z,2.20
2022-09-17T19:41:28.833Z,2.30
2022-09-17T19:43:56.724Z,1.95
2022-09-17T19:46:24.401Z,1.40
2022-09-17T19:48:51.959Z,1.73
2022-09-17T19:51:18.872Z,1.75
2022-09-17T19:53:45.580Z,1.33
2022-09-17T19:56:13.018Z,1.38
2022-09-17T19:58:39.794Z,1.83
2022-09-17T20:01:06.547Z,1.70
2022-09-17T20:03:33.176Z,2.05
2022-09-17T20:06:00.301Z,1.77
2022-09-17T20:08:26.848Z,1.30
2022-09-17T20:10:55.005Z,1.60
2022-09-17T20:13:22.376Z,1.42
2022-09-17T20:15:48.817Z,1.83
2022-09-17T20:18:17.741Z,1.13
2022-09-17T20:20:47.017Z,1.10
2022-09-17T20:23:13.450Z,1.15
2022-09-17T20:25:39.887Z,1.02
2022-09-17T20:28:06.365Z,1.15
2022-09-17T20:30:32.769Z,1.00
2022-09-17T20:32:59.171Z,1.23
2022-09-17T20:35:25.665Z,1.15
2022-09-17T20:40:38.672Z,1.20
2022-09-17T20:43:05.171Z,1.40
2022-09-17T20:45:31.560Z,0.90
2022-09-17T20:47:58.137Z,1.05
2022-09-17T20:50:24.533Z,1.20
2022-09-17T20:52:50.953Z,1.60
2022-09-17T20:55:17.692Z,1.45
2022-09-17T20:57:44.618Z,1.23
2022-09-17T21:00:19.254Z,1.27
2022-09-17T21:02:50.568Z,1.15
2022-09-17T21:05:20.090Z,1.42
2022-09-17T21:07:46.472Z,1.27
2022-09-17T21:10:13.503Z,1.35
2022-09-17T21:12:39.935Z,1.30
2022-09-17T21:15:06.477Z,1.30
2022-09-17T21:17:33.913Z,1.70
2022-09-17T21:20:00.330Z,1.40
2022-09-17T21:22:26.795Z,1.20
2022-09-17T21:24:53.193Z,1.40
2022-09-17T21:27:19.566Z,1.70
2022-09-17T21:29:45.986Z,1.27
2022-09-17T21:32:12.404Z,1.60
2022-09-17T21:34:38.839Z,1.27
2022-09-17T21:37:05.613Z,1.50
2022-09-17T21:39:34.971Z,1.27
2022-09-17T21:42:01.409Z,2.25
2022-09-17T21:44:27.801Z,1.50
2022-09-17T21:46:57.522Z,1.52
2022-09-17T21:49:24.922Z,1.75
2022-09-17T21:51:51.437Z,1.25
2022-09-17T21:54:17.949Z,1.52
2022-09-17T21:56:45.015Z,1.60
2022-09-17T21:59:12.489Z,1.60
2022-09-17T22:01:40.872Z,1.77
2022-09-17T22:04:08.467Z,1.60
2022-09-17T22:06:35.207Z,1.63
2022-09-17T22:09:03.487Z,1.35
2022-09-17T22:11:31.478Z,1.83
2022-09-17T22:14:00.653Z,1.20
2022-09-17T22:16:28.013Z,1.30
2022-09-17T22:18:54.513Z,1.52
2022-09-17T22:21:22.407Z,1.67
2022-09-17T22:23:52.718Z,1.23
2022-09-17T22:26:21.072Z,1.50
2022-09-17T22:28:47.871Z,1.58
2022-09-17T22:31:14.380Z,1.70
2022-09-17T22:33:42.084Z,1.30
2022-09-17T22:36:10.164Z,0.93
2022-09-17T22:38:36.952Z,1.30
2022-09-17T22:41:13.094Z,1.20
2022-09-17T22:43:40.604Z,1.13
2022-09-17T22:46:11.436Z,0.90
2022-09-17T22:48:38.021Z,1.55
2022-09-17T22:51:04.705Z,1.27
2022-09-17T22:53:31.299Z,1.27
2022-09-17T22:55:58.105Z,1.70
2022-09-17T22:58:24.571Z,1.52
2022-09-17T23:00:52.272Z,1.70
2022-09-17T23:03:19.123Z,1.52
2022-09-17T23:05:45.585Z,1.50
2022-09-17T23:08:13.157Z,1.52
2022-09-17T23:10:39.906Z,1.60
2022-09-17T23:13:07.152Z,1.67
2022-09-17T23:15:33.610Z,1.60
2022-09-17T23:18:00.882Z,1.70
2022-09-17T23:20:27.295Z,1.48
2022-09-17T23:22:53.683Z,1.60
2022-09-17T23:25:20.059Z,1.65
2022-09-17T23:27:47.093Z,1.50
2022-09-17T23:30:13.488Z,1.92
2022-09-17T23:32:39.879Z,1.70
2022-09-17T23:35:06.558Z,1.88
2022-09-17T23:37:32.973Z,1.65
2022-09-17T23:39:59.672Z,1.88
2022-09-17T23:42:26.117Z,2.15
2022-09-17T23:44:52.511Z,2.53
2022-09-17T23:47:19.429Z,2.13
2022-09-17T23:49:45.891Z,2.92
2022-09-17T23:52:12.311Z,2.40
2022-09-17T23:54:38.719Z,2.15
2022-09-17T23:57:05.155Z,2.38
2022-09-17T23:59:31.529Z,2.47
